sensor_id;sensor_type;location;lat;lon;timestamp;pressure;altitude;pressure_sealevel;temperature;humidity
58753;BME280;44525;46.052;13.610;2022-10-16T00:00:34;101194.25;;;11.16;nan
58753;BME280;44525;46.052;13.610;2022-10-16T00:03:00;101189.38;;;11.44;nan
58753;BME280;44525;46.052;13.610;2022-10-16T00:05:26;101192.59;;;11.41;nan
58753;BME280;44525;46.052;13.610;2022-10-16T00:07:51;101190.16;;;11.39;nan
58753;BME280;44525;46.052;13.610;2022-10-16T00:10:17;101195.06;;;11.32;nan
58753;BME280;44525;46.052;13.610;2022-10-16T00:12:42;101189.88;;;11.41;nan
58753;BME280;44525;46.052;13.610;2022-10-16T00:15:08;101192.06;;;11.49;nan
58753;BME280;44525;46.052;13.610;2022-10-16T00:17:33;101193.44;;;11.31;nan
58753;BME280;44525;46.052;13.610;2022-10-16T00:19:59;101200.22;;;11.08;nan
58753;BME280;44525;46.052;13.610;2022-10-16T00:22:24;101196.38;;;10.94;nan
58753;BME280;44525;46.052;13.610;2022-10-16T00:24:50;101190.16;;;11.09;nan
58753;BME280;44525;46.052;13.610;2022-10-16T00:27:16;101195.34;;;11.36;nan
58753;BME280;44525;46.052;13.610;2022-10-16T00:29:42;101195.03;;;11.53;nan
58753;BME280;44525;46.052;13.610;2022-10-16T00:32:08;101200.78;;;11.36;nan
58753;BME280;44525;46.052;13.610;2022-10-16T00:34:33;101204.31;;;11.11;nan
58753;BME280;44525;46.052;13.610;2022-10-16T00:36:59;101198.31;;;11.14;nan
58753;BME280;44525;46.052;13.610;2022-10-16T00:39:24;101204.31;;;11.26;nan
58753;BME280;44525;46.052;13.610;2022-10-16T00:41:50;101210.84;;;11.30;nan
58753;BME280;44525;46.052;13.610;2022-10-16T00:44:42;101207.03;;;11.62;nan
58753;BME280;44525;46.052;13.610;2022-10-16T00:47:21;101208.41;;;11.23;nan
58753;BME280;44525;46.052;13.610;2022-10-16T00:49:50;101214.91;;;11.12;nan
58753;BME280;44525;46.052;13.610;2022-10-16T00:52:17;101214.91;;;11.02;nan
58753;BME280;44525;46.052;13.610;2022-10-16T00:54:43;101216.81;;;11.01;nan
58753;BME280;44525;46.052;13.610;2022-10-16T00:57:10;101216.50;;;10.87;nan
58753;BME280;44525;46.052;13.610;2022-10-16T00:59:38;101216.53;;;11.18;nan
58753;BME280;44525;46.052;13.610;2022-10-16T01:02:10;101215.75;;;11.38;nan
58753;BME280;44525;46.052;13.610;2022-10-16T01:04:42;101224.19;;;11.37;nan
58753;BME280;44525;46.052;13.610;2022-10-16T01:15:31;101226.63;;;11.18;nan
58753;BME280;44525;46.052;13.610;2022-10-16T01:23:27;101226.34;;;11.30;nan
58753;BME280;44525;46.052;13.610;2022-10-16T01:31:18;101239.03;;;10.83;nan
58753;BME280;44525;46.052;13.610;2022-10-16T01:33:48;101233.31;;;10.74;nan
58753;BME280;44525;46.052;13.610;2022-10-16T01:36:24;101247.16;;;10.73;nan
58753;BME280;44525;46.052;13.610;2022-10-16T01:38:52;101244.97;;;10.75;nan
58753;BME280;44525;46.052;13.610;2022-10-16T01:41:26;101244.50;;;10.88;nan
58753;BME280;44525;46.052;13.610;2022-10-16T01:44:01;101241.78;;;10.93;nan
58753;BME280;44525;46.052;13.610;2022-10-16T01:46:30;101251.25;;;10.75;nan
58753;BME280;44525;46.052;13.610;2022-10-16T01:48:57;101246.34;;;10.72;nan
58753;BME280;44525;46.052;13.610;2022-10-16T01:51:25;101251.28;;;10.85;nan
58753;BME280;44525;46.052;13.610;2022-10-16T01:53:54;101251.75;;;10.67;nan
58753;BME280;44525;46.052;13.610;2022-10-16T01:56:22;101253.13;;;10.69;nan
58753;BME280;44525;46.052;13.610;2022-10-16T01:58:57;101256.69;;;10.75;nan
58753;BME280;44525;46.052;13.610;2022-10-16T02:01:26;101251.28;;;10.91;nan
58753;BME280;44525;46.052;13.610;2022-10-16T02:03:57;101252.91;;;10.86;nan
58753;BME280;44525;46.052;13.610;2022-10-16T02:06:24;101256.75;;;10.96;nan
58753;BME280;44525;46.052;13.610;2022-10-16T02:08:50;101250.78;;;11.14;nan
58753;BME280;44525;46.052;13.610;2022-10-16T02:11:16;101250.81;;;11.19;nan
58753;BME280;44525;46.052;13.610;2022-10-16T02:13:46;101259.44;;;10.85;nan
58753;BME280;44525;46.052;13.610;2022-10-16T02:16:13;101256.44;;;10.92;nan
58753;BME280;44525;46.052;13.610;2022-10-16T02:18:40;101258.66;;;11.00;nan
58753;BME280;44525;46.052;13.610;2022-10-16T02:21:24;101256.66;;;10.70;nan
58753;BME280;44525;46.052;13.610;2022-10-16T02:26:35;101252.66;;;10.93;nan
58753;BME280;44525;46.052;13.610;2022-10-16T02:29:07;101256.75;;;10.96;nan
58753;BME280;44525;46.052;13.610;2022-10-16T02:31:38;101254.56;;;10.98;nan
58753;BME280;44525;46.052;13.610;2022-10-16T02:34:06;101266.69;;;10.64;nan
58753;BME280;44525;46.052;13.610;2022-10-16T02:36:34;101269.19;;;10.86;nan
58753;BME280;44525;46.052;13.610;2022-10-16T02:39:02;101272.72;;;10.82;nan
58753;BME280;44525;46.052;13.610;2022-10-16T02:41:30;101270.81;;;10.77;nan
58753;BME280;44525;46.052;13.610;2022-10-16T02:43:56;101274.66;;;10.97;nan
58753;BME280;44525;46.052;13.610;2022-10-16T02:46:22;101271.16;;;10.91;nan
58753;BME280;44525;46.052;13.610;2022-10-16T02:48:47;101276.31;;;10.98;nan
58753;BME280;44525;46.052;13.610;2022-10-16T02:51:13;101269.75;;;10.83;nan
58753;BME280;44525;46.052;13.610;2022-10-16T02:53:38;101268.13;;;10.82;nan
58753;BME280;44525;46.052;13.610;2022-10-16T02:56:04;101274.94;;;10.90;nan
58753;BME280;44525;46.052;13.610;2022-10-16T02:58:29;101271.72;;;11.03;nan
58753;BME280;44525;46.052;13.610;2022-10-16T03:00:55;101275.22;;;10.88;nan
58753;BME280;44525;46.052;13.610;2022-10-16T03:03:21;101277.34;;;10.81;nan
58753;BME280;44525;46.052;13.610;2022-10-16T03:05:46;101263.44;;;10.62;nan
58753;BME280;44525;46.052;13.610;2022-10-16T03:08:12;101271.84;;;10.56;nan
58753;BME280;44525;46.052;13.610;2022-10-16T03:10:38;101270.16;;;10.49;nan
58753;BME280;44525;46.052;13.610;2022-10-16T03:13:03;101264.22;;;10.58;nan
58753;BME280;44525;46.052;13.610;2022-10-16T03:15:29;101262.81;;;10.45;nan
58753;BME280;44525;46.052;13.610;2022-10-16T03:17:57;101267.94;;;10.36;nan
58753;BME280;44525;46.052;13.610;2022-10-16T03:20:23;101255.50;;;10.45;nan
58753;BME280;44525;46.052;13.610;2022-10-16T03:22:49;101260.47;;;10.74;nan
58753;BME280;44525;46.052;13.610;2022-10-16T03:25:14;101258.94;;;10.99;nan
58753;BME280;44525;46.052;13.610;2022-10-16T03:27:40;101252.38;;;10.90;nan
58753;BME280;44525;46.052;13.610;2022-10-16T03:30:05;101257.84;;;11.00;nan
58753;BME280;44525;46.052;13.610;2022-10-16T03:32:31;101261.06;;;10.81;nan
58753;BME280;44525;46.052;13.610;2022-10-16T03:34:57;101265.31;;;10.57;nan
58753;BME280;44525;46.052;13.610;2022-10-16T03:37:23;101267.25;;;10.66;nan
58753;BME280;44525;46.052;13.610;2022-10-16T03:39:48;101259.16;;;10.87;nan
58753;BME280;44525;46.052;13.610;2022-10-16T03:42:14;101271.91;;;10.81;nan
58753;BME280;44525;46.052;13.610;2022-10-16T03:44:39;101268.06;;;10.67;nan
58753;BME280;44525;46.052;13.610;2022-10-16T03:47:05;101260.78;;;10.78;nan
58753;BME280;44525;46.052;13.610;2022-10-16T03:49:30;101264.31;;;10.78;nan
58753;BME280;44525;46.052;13.610;2022-10-16T03:51:55;101271.66;;;10.78;nan
58753;BME280;44525;46.052;13.610;2022-10-16T03:54:21;101270.31;;;10.85;nan
58753;BME280;44525;46.052;13.610;2022-10-16T03:56:47;101261.03;;;10.71;nan
58753;BME280;44525;46.052;13.610;2022-10-16T03:59:13;101268.44;;;10.91;nan
58753;BME280;44525;46.052;13.610;2022-10-16T04:01:38;101269.78;;;10.94;nan
58753;BME280;44525;46.052;13.610;2022-10-16T04:04:04;101273.53;;;10.77;nan
58753;BME280;44525;46.052;13.610;2022-10-16T04:06:30;101270.25;;;10.65;nan
58753;BME280;44525;46.052;13.610;2022-10-16T04:08:55;101273.97;;;10.48;nan
58753;BME280;44525;46.052;13.610;2022-10-16T04:11:21;101273.66;;;10.40;nan
58753;BME280;44525;46.052;13.610;2022-10-16T04:13:46;101268.59;;;10.64;nan
58753;BME280;44525;46.052;13.610;2022-10-16T04:16:12;101269.72;;;10.73;nan
58753;BME280;44525;46.052;13.610;2022-10-16T04:18:37;101265.72;;;10.91;nan
58753;BME280;44525;46.052;13.610;2022-10-16T04:21:06;65501.63;;;-149.14;100.00
58753;BME280;44525;46.052;13.610;2022-10-16T04:23:32;65501.63;;;19.37;100.00
58753;BME280;44525;46.052;13.610;2022-10-16T04:25:58;65501.63;;;-149.14;100.00
58753;BME280;44525;46.052;13.610;2022-10-16T04:28:24;65501.63;;;-149.14;100.00
58753;BME280;44525;46.052;13.610;2022-10-16T04:30:50;65501.63;;;10.80;100.00
58753;BME280;44525;46.052;13.610;2022-10-16T04:33:15;65501.63;;;-149.14;100.00
58753;BME280;44525;46.052;13.610;2022-10-16T04:35:41;65501.63;;;-149.14;100.00
58753;BME280;44525;46.052;13.610;2022-10-16T04:38:06;65501.63;;;-149.14;100.00
58753;BME280;44525;46.052;13.610;2022-10-16T04:40:32;65501.63;;;-149.14;100.00
58753;BME280;44525;46.052;13.610;2022-10-16T04:42:58;65501.63;;;-149.14;100.00
58753;BME280;44525;46.052;13.610;2022-10-16T04:45:24;65501.63;;;-149.14;100.00
58753;BME280;44525;46.052;13.610;2022-10-16T04:47:50;65501.63;;;-149.14;100.00
58753;BME280;44525;46.052;13.610;2022-10-16T04:50:16;65501.63;;;-149.14;100.00
58753;BME280;44525;46.052;13.610;2022-10-16T04:52:41;65501.63;;;-149.14;100.00
58753;BME280;44525;46.052;13.610;2022-10-16T04:55:07;65501.63;;;-149.14;100.00
58753;BME280;44525;46.052;13.610;2022-10-16T04:57:32;65501.63;;;11.46;100.00
58753;BME280;44525;46.052;13.610;2022-10-16T04:59:59;65501.63;;;-149.14;100.00
58753;BME280;44525;46.052;13.610;2022-10-16T05:02:25;65501.63;;;-149.14;100.00
58753;BME280;44525;46.052;13.610;2022-10-16T05:04:51;65501.63;;;-149.14;100.00
58753;BME280;44525;46.052;13.610;2022-10-16T05:07:17;65501.63;;;-149.14;100.00
58753;BME280;44525;46.052;13.610;2022-10-16T05:09:43;65501.63;;;-149.14;100.00
58753;BME280;44525;46.052;13.610;2022-10-16T05:12:09;65501.63;;;19.37;100.00
58753;BME280;44525;46.052;13.610;2022-10-16T05:14:34;65501.63;;;-149.14;100.00
58753;BME280;44525;46.052;13.610;2022-10-16T05:17:00;65501.63;;;-149.14;100.00
58753;BME280;44525;46.052;13.610;2022-10-16T05:19:25;65501.63;;;10.16;100.00
58753;BME280;44525;46.052;13.610;2022-10-16T05:21:51;65501.63;;;-149.14;100.00
58753;BME280;44525;46.052;13.610;2022-10-16T05:24:16;65501.63;;;-149.14;100.00
58753;BME280;44525;46.052;13.610;2022-10-16T05:26:42;65501.63;;;-149.14;100.00
58753;BME280;44525;46.052;13.610;2022-10-16T05:29:09;65501.63;;;-149.14;100.00
58753;BME280;44525;46.052;13.610;2022-10-16T05:31:34;65501.63;;;-149.14;100.00
58753;BME280;44525;46.052;13.610;2022-10-16T05:34:01;65501.63;;;-149.14;100.00
58753;BME280;44525;46.052;13.610;2022-10-16T05:38:53;65501.63;;;-149.14;100.00
58753;BME280;44525;46.052;13.610;2022-10-16T05:41:19;65501.63;;;-149.14;100.00
58753;BME280;44525;46.052;13.610;2022-10-16T05:43:47;65501.63;;;-149.14;100.00
58753;BME280;44525;46.052;13.610;2022-10-16T05:46:13;65501.63;;;-149.14;100.00
58753;BME280;44525;46.052;13.610;2022-10-16T05:48:39;65501.63;;;-149.14;100.00
58753;BME280;44525;46.052;13.610;2022-10-16T05:53:34;65501.63;;;-149.14;100.00
58753;BME280;44525;46.052;13.610;2022-10-16T05:55:59;65501.63;;;-149.14;100.00
58753;BME280;44525;46.052;13.610;2022-10-16T05:58:29;65501.63;;;61.55;100.00
58753;BME280;44525;46.052;13.610;2022-10-16T06:00:56;65501.63;;;14.10;100.00
58753;BME280;44525;46.052;13.610;2022-10-16T06:03:23;65501.63;;;19.37;100.00
58753;BME280;44525;46.052;13.610;2022-10-16T06:05:49;65501.63;;;188.19;100.00
58753;BME280;44525;46.052;13.610;2022-10-16T06:08:14;65501.63;;;11.46;100.00
58753;BME280;44525;46.052;13.610;2022-10-16T06:10:39;65501.63;;;-149.14;100.00
58753;BME280;44525;46.052;13.610;2022-10-16T06:13:05;65501.63;;;-149.14;100.00
58753;BME280;44525;46.052;13.610;2022-10-16T06:15:31;65501.63;;;-149.14;100.00
58753;BME280;44525;46.052;13.610;2022-10-16T06:17:56;65501.63;;;-149.14;100.00
58753;BME280;44525;46.052;13.610;2022-10-16T06:20:22;65501.63;;;-149.14;100.00
58753;BME280;44525;46.052;13.610;2022-10-16T06:22:47;65501.63;;;-149.14;100.00
58753;BME280;44525;46.052;13.610;2022-10-16T06:27:41;65501.63;;;-149.14;100.00
58753;BME280;44525;46.052;13.610;2022-10-16T06:30:07;65501.63;;;-149.14;100.00
58753;BME280;44525;46.052;13.610;2022-10-16T06:32:33;65501.63;;;-149.14;100.00
58753;BME280;44525;46.052;13.610;2022-10-16T06:34:59;65501.63;;;-149.14;100.00
58753;BME280;44525;46.052;13.610;2022-10-16T06:37:25;65501.63;;;-149.14;100.00
58753;BME280;44525;46.052;13.610;2022-10-16T06:39:51;65501.63;;;-149.14;100.00
58753;BME280;44525;46.052;13.610;2022-10-16T06:42:20;65501.63;;;-149.14;100.00
58753;BME280;44525;46.052;13.610;2022-10-16T06:44:45;65501.63;;;-149.14;100.00
58753;BME280;44525;46.052;13.610;2022-10-16T06:47:11;65501.63;;;-149.14;100.00
58753;BME280;44525;46.052;13.610;2022-10-16T06:49:37;65501.63;;;-149.14;100.00
58753;BME280;44525;46.052;13.610;2022-10-16T06:52:03;65501.63;;;-149.14;100.00
58753;BME280;44525;46.052;13.610;2022-10-16T06:56:54;65501.63;;;-149.14;100.00
58753;BME280;44525;46.052;13.610;2022-10-16T06:59:21;65501.63;;;19.37;100.00
58753;BME280;44525;46.052;13.610;2022-10-16T07:01:47;65501.63;;;-149.14;100.00
58753;BME280;44525;46.052;13.610;2022-10-16T07:04:13;65501.63;;;-149.14;100.00
58753;BME280;44525;46.052;13.610;2022-10-16T07:06:38;65501.63;;;-149.14;100.00
58753;BME280;44525;46.052;13.610;2022-10-16T07:11:30;65501.63;;;-149.14;100.00
58753;BME280;44525;46.052;13.610;2022-10-16T07:13:56;65501.63;;;12.54;100.00
58753;BME280;44525;46.052;13.610;2022-10-16T07:16:24;65501.63;;;-149.14;100.00
58753;BME280;44525;46.052;13.610;2022-10-16T07:18:50;65501.63;;;20.69;100.00
58753;BME280;44525;46.052;13.610;2022-10-16T07:21:21;65501.63;;;-149.14;100.00
58753;BME280;44525;46.052;13.610;2022-10-16T07:23:51;65501.63;;;-149.14;100.00
58753;BME280;44525;46.052;13.610;2022-10-16T07:26:17;65501.63;;;-149.14;100.00
58753;BME280;44525;46.052;13.610;2022-10-16T07:28:43;65501.63;;;12.45;100.00
58753;BME280;44525;46.052;13.610;2022-10-16T07:31:11;65501.63;;;-149.14;100.00
58753;BME280;44525;46.052;13.610;2022-10-16T07:33:39;65501.63;;;-149.14;100.00
58753;BME280;44525;46.052;13.610;2022-10-16T07:36:05;65501.63;;;-149.14;100.00
58753;BME280;44525;46.052;13.610;2022-10-16T07:38:31;65501.63;;;-149.14;100.00
58753;BME280;44525;46.052;13.610;2022-10-16T07:41:02;65501.63;;;-149.14;100.00
58753;BME280;44525;46.052;13.610;2022-10-16T07:43:28;65501.63;;;19.37;100.00
58753;BME280;44525;46.052;13.610;2022-10-16T07:45:54;65501.63;;;-149.14;100.00
58753;BME280;44525;46.052;13.610;2022-10-16T07:48:21;65501.63;;;19.37;100.00
58753;BME280;44525;46.052;13.610;2022-10-16T07:50:46;65501.63;;;12.28;100.00
58753;BME280;44525;46.052;13.610;2022-10-16T07:53:12;65501.63;;;-149.14;100.00
58753;BME280;44525;46.052;13.610;2022-10-16T07:55:38;65501.63;;;19.37;100.00
58753;BME280;44525;46.052;13.610;2022-10-16T07:58:05;65501.63;;;12.53;100.00
58753;BME280;44525;46.052;13.610;2022-10-16T08:00:31;65501.63;;;-149.14;100.00
58753;BME280;44525;46.052;13.610;2022-10-16T08:02:57;65501.63;;;-149.14;100.00
58753;BME280;44525;46.052;13.610;2022-10-16T08:05:29;65501.63;;;-149.14;100.00
58753;BME280;44525;46.052;13.610;2022-10-16T08:07:56;65501.63;;;19.37;100.00
58753;BME280;44525;46.052;13.610;2022-10-16T08:10:24;65501.63;;;12.74;100.00
58753;BME280;44525;46.052;13.610;2022-10-16T08:12:50;65501.63;;;12.83;100.00
58753;BME280;44525;46.052;13.610;2022-10-16T08:15:16;65501.63;;;-149.14;100.00
58753;BME280;44525;46.052;13.610;2022-10-16T08:17:42;65501.63;;;19.37;100.00
58753;BME280;44525;46.052;13.610;2022-10-16T08:20:08;65501.63;;;-149.14;100.00
58753;BME280;44525;46.052;13.610;2022-10-16T08:22:33;65501.63;;;-149.14;100.00
58753;BME280;44525;46.052;13.610;2022-10-16T08:24:59;65501.63;;;-149.14;100.00
58753;BME280;44525;46.052;13.610;2022-10-16T08:27:24;65501.63;;;13.01;100.00
58753;BME280;44525;46.052;13.610;2022-10-16T08:29:50;85136.00;;;13.16;100.00
58753;BME280;44525;46.052;13.610;2022-10-16T08:32:16;85106.78;;;12.94;100.00
58753;BME280;44525;46.052;13.610;2022-10-16T08:34:41;65501.63;;;-149.14;100.00
58753;BME280;44525;46.052;13.610;2022-10-16T08:37:07;65501.63;;;-149.14;100.00
58753;BME280;44525;46.052;13.610;2022-10-16T08:39:33;65501.63;;;-149.14;100.00
58753;BME280;44525;46.052;13.610;2022-10-16T08:50:12;65501.63;;;-149.14;100.00
58753;BME280;44525;46.052;13.610;2022-10-16T08:52:43;65501.63;;;-149.14;100.00
58753;BME280;44525;46.052;13.610;2022-10-16T08:55:28;65501.63;;;-149.14;100.00
58753;BME280;44525;46.052;13.610;2022-10-16T08:57:55;65501.63;;;-149.14;100.00
58753;BME280;44525;46.052;13.610;2022-10-16T09:00:21;65501.63;;;-149.14;100.00
58753;BME280;44525;46.052;13.610;2022-10-16T09:03:22;65501.63;;;-149.14;100.00
58753;BME280;44525;46.052;13.610;2022-10-16T09:06:10;65501.63;;;-149.14;100.00
58753;BME280;44525;46.052;13.610;2022-10-16T09:11:34;65501.63;;;-149.14;100.00
58753;BME280;44525;46.052;13.610;2022-10-16T09:17:06;65501.63;;;-149.14;100.00
58753;BME280;44525;46.052;13.610;2022-10-16T09:19:45;65501.63;;;-149.14;100.00
58753;BME280;44525;46.052;13.610;2022-10-16T09:22:16;65501.63;;;-149.14;100.00
58753;BME280;44525;46.052;13.610;2022-10-16T09:27:12;101474.34;;;16.26;nan
58753;BME280;44525;46.052;13.610;2022-10-16T09:29:39;101478.66;;;16.46;nan
58753;BME280;44525;46.052;13.610;2022-10-16T09:32:15;101485.56;;;16.43;nan
58753;BME280;44525;46.052;13.610;2022-10-16T09:34:47;101482.56;;;16.59;nan
58753;BME280;44525;46.052;13.610;2022-10-16T09:37:17;101479.44;;;16.65;nan
58753;BME280;44525;46.052;13.610;2022-10-16T09:39:53;101475.91;;;16.79;nan
58753;BME280;44525;46.052;13.610;2022-10-16T09:42:20;101476.53;;;16.90;nan
58753;BME280;44525;46.052;13.610;2022-10-16T09:44:48;101486.47;;;16.86;nan
58753;BME280;44525;46.052;13.610;2022-10-16T09:47:18;101489.81;;;16.82;nan
58753;BME280;44525;46.052;13.610;2022-10-16T09:50:22;101479.63;;;16.69;nan
58753;BME280;44525;46.052;13.610;2022-10-16T09:52:48;101489.16;;;16.91;nan
58753;BME280;44525;46.052;13.610;2022-10-16T09:55:16;101486.72;;;16.89;nan
58753;BME280;44525;46.052;13.610;2022-10-16T09:57:51;101488.41;;;16.85;nan
58753;BME280;44525;46.052;13.610;2022-10-16T10:00:18;101485.81;;;17.08;nan
58753;BME280;44525;46.052;13.610;2022-10-16T10:02:44;101478.97;;;17.33;nan
58753;BME280;44525;46.052;13.610;2022-10-16T10:05:29;101480.41;;;17.44;nan
58753;BME280;44525;46.052;13.610;2022-10-16T10:08:03;101469.16;;;17.68;nan
58753;BME280;44525;46.052;13.610;2022-10-16T10:10:39;101473.25;;;17.71;nan
58753;BME280;44525;46.052;13.610;2022-10-16T10:13:21;101461.84;;;17.78;nan
58753;BME280;44525;46.052;13.610;2022-10-16T10:15:47;101462.81;;;17.96;nan
58753;BME280;44525;46.052;13.610;2022-10-16T10:18:21;101462.81;;;18.18;nan
58753;BME280;44525;46.052;13.610;2022-10-16T10:20:59;101458.06;;;18.33;nan
58753;BME280;44525;46.052;13.610;2022-10-16T10:23:27;101455.56;;;18.45;nan
58753;BME280;44525;46.052;13.610;2022-10-16T10:26:18;101460.41;;;18.48;nan
58753;BME280;44525;46.052;13.610;2022-10-16T10:28:54;101447.13;;;18.41;nan
58753;BME280;44525;46.052;13.610;2022-10-16T10:31:34;101447.25;;;18.36;nan
58753;BME280;44525;46.052;13.610;2022-10-16T10:34:25;101444.69;;;18.40;nan
58753;BME280;44525;46.052;13.610;2022-10-16T10:42:44;101423.25;;;18.91;nan
58753;BME280;44525;46.052;13.610;2022-10-16T10:45:33;101428.66;;;19.05;nan
58753;BME280;44525;46.052;13.610;2022-10-16T10:54:16;101415.44;;;19.24;nan
58753;BME280;44525;46.052;13.610;2022-10-16T10:57:00;101411.88;;;19.50;nan
58753;BME280;44525;46.052;13.610;2022-10-16T11:07:10;101403.97;;;20.10;nan
58753;BME280;44525;46.052;13.610;2022-10-16T11:09:41;101400.06;;;20.20;nan
58753;BME280;44525;46.052;13.610;2022-10-16T11:12:21;101395.97;;;20.35;nan
58753;BME280;44525;46.052;13.610;2022-10-16T11:15:28;101394.63;;;20.41;nan
58753;BME280;44525;46.052;13.610;2022-10-16T11:20:47;101392.72;;;20.80;nan
58753;BME280;44525;46.052;13.610;2022-10-16T11:25:40;101383.34;;;21.02;nan
58753;BME280;44525;46.052;13.610;2022-10-16T11:28:22;101378.09;;;21.30;nan
58753;BME280;44525;46.052;13.610;2022-10-16T11:33:40;101379.03;;;21.64;nan
58753;BME280;44525;46.052;13.610;2022-10-16T11:39:07;101376.59;;;21.96;nan
58753;BME280;44525;46.052;13.610;2022-10-16T11:41:44;101371.44;;;22.07;nan
58753;BME280;44525;46.052;13.610;2022-10-16T11:49:50;101373.19;;;22.12;nan
58753;BME280;44525;46.052;13.610;2022-10-16T11:55:18;101371.53;;;22.32;nan
58753;BME280;44525;46.052;13.610;2022-10-16T11:57:59;101374.88;;;22.37;nan
58753;BME280;44525;46.052;13.610;2022-10-16T12:06:25;101372.81;;;22.34;nan
58753;BME280;44525;46.052;13.610;2022-10-16T12:08:53;101363.94;;;22.66;nan
58753;BME280;44525;46.052;13.610;2022-10-16T12:14:07;101370.69;;;22.31;nan
58753;BME280;44525;46.052;13.610;2022-10-16T12:16:59;101376.50;;;22.05;nan
58753;BME280;44525;46.052;13.610;2022-10-16T12:19:28;101375.66;;;21.92;nan
58753;BME280;44525;46.052;13.610;2022-10-16T12:21:58;101372.28;;;21.86;nan
58753;BME280;44525;46.052;13.610;2022-10-16T12:24:32;101380.56;;;21.74;nan
58753;BME280;44525;46.052;13.610;2022-10-16T12:26:59;101368.38;;;21.54;nan
58753;BME280;44525;46.052;13.610;2022-10-16T12:29:37;101375.69;;;21.29;nan
58753;BME280;44525;46.052;13.610;2022-10-16T12:32:06;101382.88;;;21.21;nan
58753;BME280;44525;46.052;13.610;2022-10-16T12:34:47;101379.03;;;21.13;nan
58753;BME280;44525;46.052;13.610;2022-10-16T12:37:33;101380.91;;;21.00;nan
58753;BME280;44525;46.052;13.610;2022-10-16T12:39:59;101383.59;;;20.88;nan
58753;BME280;44525;46.052;13.610;2022-10-16T12:42:39;101384.59;;;20.83;nan
58753;BME280;44525;46.052;13.610;2022-10-16T12:45:32;101392.56;;;20.76;nan
58753;BME280;44525;46.052;13.610;2022-10-16T12:48:01;101396.13;;;20.77;nan
58753;BME280;44525;46.052;13.610;2022-10-16T12:50:37;101389.69;;;20.64;nan
58753;BME280;44525;46.052;13.610;2022-10-16T12:53:26;101393.56;;;20.72;nan
58753;BME280;44525;46.052;13.610;2022-10-16T13:01:28;101397.44;;;20.79;nan
58753;BME280;44525;46.052;13.610;2022-10-16T13:04:34;101397.09;;;21.11;nan
58753;BME280;44525;46.052;13.610;2022-10-16T13:09:58;101401.19;;;21.77;nan
58753;BME280;44525;46.052;13.610;2022-10-16T13:14:58;101403.13;;;21.97;nan
58753;BME280;44525;46.052;13.610;2022-10-16T13:18:06;101405.97;;;22.22;nan
58753;BME280;44525;46.052;13.610;2022-10-16T13:23:11;101413.00;;;22.65;nan
58753;BME280;44525;46.052;13.610;2022-10-16T13:28:33;101408.50;;;22.98;nan
58753;BME280;44525;46.052;13.610;2022-10-16T13:31:01;101407.44;;;23.02;nan
58753;BME280;44525;46.052;13.610;2022-10-16T13:33:33;101413.47;;;23.17;nan
58753;BME280;44525;46.052;13.610;2022-10-16T13:36:00;101410.22;;;23.15;nan
58753;BME280;44525;46.052;13.610;2022-10-16T13:38:28;101404.41;;;23.44;nan
58753;BME280;44525;46.052;13.610;2022-10-16T13:41:00;101397.13;;;23.40;nan
58753;BME280;44525;46.052;13.610;2022-10-16T13:43:35;101408.22;;;23.40;nan
58753;BME280;44525;46.052;13.610;2022-10-16T13:46:06;101406.88;;;22.72;nan
58753;BME280;44525;46.052;13.610;2022-10-16T13:48:35;101407.22;;;22.83;nan
58753;BME280;44525;46.052;13.610;2022-10-16T13:51:18;101410.22;;;22.77;nan
58753;BME280;44525;46.052;13.610;2022-10-16T13:53:44;101406.63;;;22.65;nan
58753;BME280;44525;46.052;13.610;2022-10-16T13:56:16;101409.50;;;22.43;nan
58753;BME280;44525;46.052;13.610;2022-10-16T13:58:42;101414.31;;;22.34;nan
58753;BME280;44525;46.052;13.610;2022-10-16T14:01:20;101410.44;;;22.14;nan
58753;BME280;44525;46.052;13.610;2022-10-16T14:03:49;101403.81;;;21.94;nan
58753;BME280;44525;46.052;13.610;2022-10-16T14:06:18;101405.63;;;21.90;nan
58753;BME280;44525;46.052;13.610;2022-10-16T14:08:51;101398.09;;;21.78;nan
58753;BME280;44525;46.052;13.610;2022-10-16T14:11:23;101395.13;;;21.62;nan
58753;BME280;44525;46.052;13.610;2022-10-16T14:13:50;101398.63;;;21.50;nan
58753;BME280;44525;46.052;13.610;2022-10-16T14:16:18;101391.16;;;21.51;nan
58753;BME280;44525;46.052;13.610;2022-10-16T14:19:17;101396.81;;;21.33;nan
58753;BME280;44525;46.052;13.610;2022-10-16T14:21:43;101406.41;;;21.27;nan
58753;BME280;44525;46.052;13.610;2022-10-16T14:24:13;101400.41;;;21.25;nan
58753;BME280;44525;46.052;13.610;2022-10-16T14:26:46;101402.94;;;21.09;nan
58753;BME280;44525;46.052;13.610;2022-10-16T14:29:18;101400.84;;;21.06;nan
58753;BME280;44525;46.052;13.610;2022-10-16T14:32:03;101406.75;;;20.96;nan
58753;BME280;44525;46.052;13.610;2022-10-16T14:34:33;101401.66;;;20.77;nan
58753;BME280;44525;46.052;13.610;2022-10-16T14:37:01;101412.69;;;20.77;nan
58753;BME280;44525;46.052;13.610;2022-10-16T14:39:32;101412.56;;;20.64;nan
58753;BME280;44525;46.052;13.610;2022-10-16T14:41:58;101415.34;;;20.56;nan
58753;BME280;44525;46.052;13.610;2022-10-16T14:44:29;101415.16;;;20.61;nan
58753;BME280;44525;46.052;13.610;2022-10-16T14:46:56;101411.31;;;20.53;nan
58753;BME280;44525;46.052;13.610;2022-10-16T14:49:23;101421.25;;;20.45;nan
58753;BME280;44525;46.052;13.610;2022-10-16T14:51:49;101416.88;;;20.36;nan
58753;BME280;44525;46.052;13.610;2022-10-16T14:54:16;101422.25;;;20.32;nan